San Pablo, Colorado
Current Conditions -  °F | °C
As of 5:52 AM on Sunday 23 Nov 2014 (Local Time) from KVTP Reporting Station
Overcast Overcast  
Wind Chill: 13°   Ceiling: 1800
Heat Index: 23°   Visibility: 10mi
Dew Point: 19°   Wind: 9mph
Humidity: 86%   Direction: 190°S
Pressure: 29.7"   Gusts: 17mph
Location:  37.15°N, 105.4°W
Report Text: KVTP 231252Z AUTO 19008G15KT 170V280 10SM SCT007 BKN018 OVC023 M05/M07 A2970 RMK AO2
Loading
Personal Weather Stations






























Interactive Weather Map New forecast layout! Learn more

10-Day Weather Forecast

Advertisements
Track Severe Weather on mobile